createdAt,value
2022-09-27T00:01:15.024Z,14.73
2022-09-27T00:03:43.603Z,14.80
2022-09-27T00:06:15.722Z,14.73
2022-09-27T00:08:44.606Z,14.74
2022-09-27T00:11:21.334Z,14.75
2022-09-27T00:13:49.175Z,14.72
2022-09-27T00:16:17.126Z,14.70
2022-09-27T00:18:45.179Z,14.75
2022-09-27T00:21:14.900Z,14.78
2022-09-27T00:23:42.981Z,14.85
2022-09-27T00:26:13.345Z,14.84
2022-09-27T00:28:43.334Z,14.79
2022-09-27T00:31:22.777Z,14.67
2022-09-27T00:33:53.732Z,14.64
2022-09-27T00:36:22.428Z,14.65
2022-09-27T00:38:51.034Z,14.63
2022-09-27T00:41:20.877Z,14.62
2022-09-27T00:43:52.708Z,14.60
2022-09-27T00:46:27.659Z,14.61
2022-09-27T00:49:05.329Z,14.52
2022-09-27T00:51:37.474Z,14.53
2022-09-27T00:54:07.804Z,14.44
2022-09-27T00:56:37.513Z,14.34
2022-09-27T00:59:11.915Z,14.38
2022-09-27T01:01:40.514Z,14.32
2022-09-27T01:04:10.281Z,14.20
2022-09-27T01:06:38.682Z,14.23
2022-09-27T01:09:08.075Z,14.14
2022-09-27T01:11:45.956Z,14.17
2022-09-27T01:14:48.234Z,14.20
2022-09-27T01:17:33.757Z,14.16
2022-09-27T01:20:22.065Z,14.17
2022-09-27T01:23:04.675Z,14.16
2022-09-27T01:25:54.238Z,14.05
2022-09-27T01:28:28.347Z,14.04
2022-09-27T01:31:05.269Z,14.08
2022-09-27T01:33:48.765Z,14.04
2022-09-27T01:36:23.613Z,14.08
2022-09-27T01:39:07.698Z,14.15
2022-09-27T01:41:40.557Z,14.19
2022-09-27T01:44:15.299Z,14.23
2022-09-27T01:46:49.323Z,14.21
2022-09-27T01:49:19.431Z,14.11
2022-09-27T01:51:54.954Z,14.01
2022-09-27T01:54:28.978Z,14.04
2022-09-27T01:57:00.773Z,14.09
2022-09-27T01:59:33.459Z,14.21
2022-09-27T02:02:09.369Z,14.22
2022-09-27T02:04:41.278Z,14.14
2022-09-27T02:07:15.042Z,14.14
2022-09-27T02:09:49.862Z,14.15
2022-09-27T02:12:33.921Z,14.14
2022-09-27T02:15:06.934Z,14.14
2022-09-27T02:17:45.727Z,14.17
2022-09-27T02:20:18.727Z,14.15
2022-09-27T02:22:50.390Z,14.15
2022-09-27T02:25:24.323Z,14.13
2022-09-27T02:28:00.704Z,14.04
2022-09-27T02:30:28.748Z,14.02
2022-09-27T02:32:57.962Z,14.00
2022-09-27T02:35:30.748Z,13.97
2022-09-27T02:37:59.330Z,13.96
2022-09-27T02:40:32.941Z,13.96
2022-09-27T02:43:01.636Z,13.97
2022-09-27T02:45:38.126Z,13.98
2022-09-27T02:48:20.681Z,13.97
2022-09-27T02:51:22.780Z,14.03
2022-09-27T02:54:04.638Z,14.03
2022-09-27T02:56:41.520Z,14.03
2022-09-27T02:59:18.625Z,14.00
2022-09-27T03:01:59.506Z,14.03
2022-09-27T03:04:35.681Z,14.11
2022-09-27T03:07:04.247Z,14.07
2022-09-27T03:09:42.985Z,13.92
2022-09-27T03:12:11.160Z,13.92
2022-09-27T03:14:38.998Z,13.92
2022-09-27T03:17:07.014Z,13.94
2022-09-27T03:19:36.256Z,13.95
2022-09-27T03:22:04.144Z,13.97
2022-09-27T03:24:32.194Z,14.02
2022-09-27T03:27:00.061Z,14.01
2022-09-27T03:29:27.953Z,14.05
2022-09-27T03:31:55.842Z,14.07
2022-09-27T03:34:23.708Z,14.06
2022-09-27T03:36:53.134Z,14.07
2022-09-27T03:39:20.978Z,14.08
2022-09-27T03:41:48.860Z,14.08
2022-09-27T03:44:16.724Z,14.09
2022-09-27T03:46:44.562Z,14.07
2022-09-27T03:49:12.425Z,14.07
2022-09-27T03:51:40.279Z,14.05
2022-09-27T03:54:09.588Z,14.08
2022-09-27T03:56:37.425Z,14.14
2022-09-27T03:59:05.452Z,14.16
2022-09-27T04:01:35.369Z,14.18
2022-09-27T04:04:07.560Z,14.26
2022-09-27T04:06:38.153Z,14.24
2022-09-27T04:09:06.027Z,14.26
2022-09-27T04:11:35.242Z,14.30
2022-09-27T04:14:05.169Z,14.22
2022-09-27T04:16:33.870Z,14.20
2022-09-27T04:19:01.859Z,14.24
2022-09-27T04:21:29.859Z,14.31
2022-09-27T04:23:57.810Z,14.35
2022-09-27T04:26:25.901Z,14.34
2022-09-27T04:28:55.151Z,14.35
2022-09-27T04:31:23.182Z,14.37
2022-09-27T04:33:51.297Z,14.37
2022-09-27T04:36:26.540Z,14.39
2022-09-27T04:38:55.314Z,14.37
2022-09-27T04:41:24.435Z,14.33
2022-09-27T04:43:56.719Z,14.35
2022-09-27T04:46:31.579Z,14.37
2022-09-27T04:49:00.283Z,14.43
2022-09-27T04:51:28.860Z,14.50
2022-09-27T04:53:57.374Z,14.47
2022-09-27T04:56:25.490Z,14.43
2022-09-27T04:58:53.930Z,14.45
2022-09-27T05:01:22.902Z,14.40
2022-09-27T05:03:52.237Z,14.43
2022-09-27T05:06:20.109Z,14.47
2022-09-27T05:08:49.106Z,14.55
2022-09-27T05:11:16.943Z,14.58
2022-09-27T05:13:44.816Z,14.55
2022-09-27T05:16:12.762Z,14.51
2022-09-27T05:18:40.654Z,14.49
2022-09-27T05:21:09.970Z,14.48
2022-09-27T05:23:38.040Z,14.49
2022-09-27T05:26:06.277Z,14.49
2022-09-27T05:28:35.147Z,14.43
2022-09-27T05:31:03.271Z,14.36
2022-09-27T05:33:31.257Z,14.24
2022-09-27T05:35:59.360Z,14.26
2022-09-27T05:38:30.046Z,14.27
2022-09-27T05:40:57.974Z,14.25
2022-09-27T05:43:26.249Z,14.21
2022-09-27T05:45:54.188Z,14.26
2022-09-27T05:48:22.238Z,14.21
2022-09-27T05:50:50.107Z,14.20
2022-09-27T05:53:18.736Z,14.21
2022-09-27T05:55:48.758Z,14.10
2022-09-27T05:58:16.930Z,14.05
2022-09-27T06:00:45.328Z,14.08
2022-09-27T06:03:14.961Z,14.13
2022-09-27T06:05:42.847Z,14.15
2022-09-27T06:08:12.836Z,14.18
2022-09-27T06:10:41.993Z,14.22
2022-09-27T06:13:13.287Z,14.30
2022-09-27T06:15:42.491Z,14.34
2022-09-27T06:18:12.446Z,14.38
2022-09-27T06:20:41.634Z,14.43
2022-09-27T06:23:11.693Z,14.46
2022-09-27T06:25:40.384Z,14.52
2022-09-27T06:28:09.392Z,14.67
2022-09-27T06:30:40.555Z,14.71
2022-09-27T06:33:10.419Z,14.75
2022-09-27T06:35:38.346Z,14.75
2022-09-27T06:38:09.100Z,14.69
2022-09-27T06:40:37.164Z,14.69
2022-09-27T06:43:06.114Z,14.72
2022-09-27T06:45:35.263Z,14.73
2022-09-27T06:48:05.517Z,14.62
2022-09-27T06:50:35.493Z,14.64
2022-09-27T06:53:03.590Z,14.70
2022-09-27T06:55:31.509Z,14.73
2022-09-27T06:58:18.137Z,14.67
2022-09-27T07:00:47.815Z,14.56
2022-09-27T07:03:17.308Z,14.52
2022-09-27T07:05:55.816Z,14.60
2022-09-27T07:08:25.114Z,14.69
2022-09-27T07:10:53.176Z,14.75
2022-09-27T07:13:21.027Z,14.84
2022-09-27T07:15:49.552Z,14.89
2022-09-27T07:18:18.995Z,14.95
2022-09-27T07:20:46.860Z,14.95
2022-09-27T07:23:15.990Z,14.92
2022-09-27T07:25:44.269Z,14.92
2022-09-27T07:28:21.574Z,14.99
2022-09-27T07:30:50.824Z,15.14
2022-09-27T07:33:20.081Z,15.22
2022-09-27T07:35:47.987Z,15.30
2022-09-27T07:38:16.656Z,15.38
2022-09-27T07:40:45.090Z,15.45
2022-09-27T07:43:13.308Z,15.51
2022-09-27T07:45:41.467Z,15.56
2022-09-27T07:48:11.690Z,15.62
2022-09-27T07:50:41.072Z,15.61
2022-09-27T07:53:12.787Z,15.59
2022-09-27T07:55:41.168Z,15.28
2022-09-27T07:58:11.396Z,15.14
2022-09-27T08:00:41.033Z,15.23
2022-09-27T08:03:11.678Z,15.16
2022-09-27T08:05:40.936Z,15.19
2022-09-27T08:08:08.843Z,15.15
2022-09-27T08:10:36.895Z,15.19
2022-09-27T08:13:06.068Z,15.27
2022-09-27T08:15:36.080Z,15.33
2022-09-27T08:18:04.125Z,15.49
2022-09-27T08:20:32.026Z,15.58
2022-09-27T08:23:04.254Z,15.63
2022-09-27T08:25:32.380Z,15.67
2022-09-27T08:28:01.624Z,15.67
2022-09-27T08:30:31.319Z,15.69
2022-09-27T08:33:00.133Z,15.79
2022-09-27T08:35:29.331Z,15.88
2022-09-27T08:37:59.057Z,15.91
2022-09-27T08:40:37.119Z,15.96
2022-09-27T08:43:11.059Z,15.94
2022-09-27T08:45:43.148Z,16.04
2022-09-27T08:48:11.638Z,16.03
2022-09-27T08:50:43.694Z,15.93
2022-09-27T08:53:21.530Z,15.92
2022-09-27T08:55:53.852Z,15.88
2022-09-27T08:58:26.963Z,15.89
2022-09-27T09:00:56.972Z,15.87
2022-09-27T09:03:28.217Z,15.93
2022-09-27T09:06:15.673Z,16.15
2022-09-27T09:08:57.945Z,16.22
2022-09-27T09:11:57.733Z,16.21
2022-09-27T09:14:48.133Z,16.34
2022-09-27T09:17:30.210Z,16.52
2022-09-27T09:20:17.519Z,16.78
2022-09-27T09:22:59.880Z,16.90
2022-09-27T09:25:36.395Z,16.88
2022-09-27T09:28:20.428Z,16.91
2022-09-27T09:31:01.364Z,16.81
2022-09-27T09:33:32.541Z,16.73
2022-09-27T09:36:04.058Z,16.71
2022-09-27T09:38:39.225Z,16.75
2022-09-27T09:41:11.344Z,16.80
2022-09-27T09:43:46.383Z,17.02
2022-09-27T09:46:20.258Z,17.26
2022-09-27T09:48:53.083Z,17.38
2022-09-27T09:51:24.974Z,17.58
2022-09-27T09:53:58.428Z,17.51
2022-09-27T09:56:30.630Z,17.44
2022-09-27T09:59:03.380Z,17.42
2022-09-27T10:01:37.194Z,17.39
2022-09-27T10:04:05.385Z,17.40
2022-09-27T10:06:33.614Z,17.34
2022-09-27T10:09:01.667Z,17.40
2022-09-27T10:11:40.523Z,17.41
2022-09-27T10:14:13.453Z,17.47
2022-09-27T10:16:45.668Z,17.39
2022-09-27T10:19:17.281Z,17.52
2022-09-27T10:21:50.157Z,17.60
2022-09-27T10:24:20.522Z,17.67
2022-09-27T10:26:51.633Z,17.97
2022-09-27T10:29:26.460Z,17.90
2022-09-27T10:31:54.642Z,18.49
2022-09-27T10:34:28.141Z,18.14
2022-09-27T10:37:20.495Z,18.51
2022-09-27T10:39:50.949Z,18.27
2022-09-27T10:42:34.829Z,17.97
2022-09-27T10:45:26.831Z,18.18
2022-09-27T10:47:54.899Z,18.34
2022-09-27T10:50:48.989Z,18.36
2022-09-27T10:53:16.787Z,19.11
2022-09-27T10:55:48.929Z,19.45
2022-09-27T10:58:20.400Z,19.09
2022-09-27T11:00:58.135Z,19.43
2022-09-27T11:03:29.037Z,19.24
2022-09-27T11:05:59.313Z,19.80
2022-09-27T11:08:32.185Z,20.18
2022-09-27T11:11:08.027Z,20.50
2022-09-27T11:13:36.204Z,20.75
2022-09-27T11:16:32.204Z,20.80
2022-09-27T11:19:15.672Z,21.03
2022-09-27T11:21:52.281Z,21.01
2022-09-27T11:24:39.997Z,21.24
2022-09-27T11:27:20.398Z,21.43
2022-09-27T11:30:02.964Z,20.68
2022-09-27T11:32:46.788Z,20.01
2022-09-27T11:35:34.408Z,20.87
2022-09-27T11:38:24.812Z,20.06
2022-09-27T11:41:19.753Z,21.21
2022-09-27T11:44:17.858Z,21.32
2022-09-27T11:46:51.490Z,21.90
2022-09-27T11:49:54.552Z,21.50
2022-09-27T11:52:37.797Z,20.60
2022-09-27T11:55:21.144Z,20.42
2022-09-27T11:57:57.308Z,20.50
2022-09-27T12:00:26.253Z,21.08
2022-09-27T12:03:36.685Z,21.69
2022-09-27T12:06:12.663Z,20.85
2022-09-27T12:08:54.048Z,21.65
2022-09-27T12:11:29.033Z,20.87
2022-09-27T12:13:59.875Z,20.59
2022-09-27T12:16:29.002Z,20.79
2022-09-27T12:18:57.468Z,21.48
2022-09-27T12:21:28.227Z,21.58
2022-09-27T12:23:58.873Z,21.42
2022-09-27T12:26:29.536Z,21.48
2022-09-27T12:29:00.744Z,21.32
2022-09-27T12:31:35.843Z,22.13
2022-09-27T12:34:19.336Z,23.13
2022-09-27T12:36:54.577Z,23.95
2022-09-27T12:39:26.856Z,24.22
2022-09-27T12:42:02.229Z,24.14
2022-09-27T12:44:39.078Z,23.88
2022-09-27T12:47:16.469Z,23.85
2022-09-27T12:50:01.010Z,24.08
2022-09-27T12:52:34.552Z,24.02
2022-09-27T12:55:30.083Z,24.33
2022-09-27T12:58:17.947Z,24.58
2022-09-27T13:00:56.000Z,24.79
2022-09-27T13:04:02.258Z,24.82
2022-09-27T13:06:47.399Z,24.63
2022-09-27T13:09:43.469Z,24.68
2022-09-27T13:12:14.477Z,24.21
2022-09-27T13:14:49.526Z,23.97
2022-09-27T13:17:50.061Z,24.26
2022-09-27T13:20:44.371Z,24.47
2022-09-27T13:23:57.994Z,24.87
2022-09-27T13:26:47.091Z,25.02
2022-09-27T13:29:33.951Z,24.72
2022-09-27T13:32:23.642Z,24.31
2022-09-27T13:34:53.861Z,24.52
2022-09-27T13:37:51.666Z,24.92
2022-09-27T13:40:29.078Z,24.35
2022-09-27T13:43:26.988Z,24.67
2022-09-27T13:45:57.838Z,24.26
2022-09-27T13:48:31.852Z,24.30
2022-09-27T13:51:04.428Z,24.45
2022-09-27T13:53:36.589Z,24.42
2022-09-27T13:56:05.721Z,24.44
2022-09-27T13:58:55.908Z,24.21
2022-09-27T14:01:29.721Z,23.84
2022-09-27T14:04:03.779Z,23.87
2022-09-27T14:06:36.105Z,23.82
2022-09-27T14:09:07.890Z,23.52
2022-09-27T14:11:40.136Z,23.13
2022-09-27T14:14:18.667Z,23.06
2022-09-27T14:16:47.562Z,22.86
2022-09-27T14:19:18.392Z,22.66
2022-09-27T14:21:47.631Z,22.64
2022-09-27T14:24:29.784Z,22.62
2022-09-27T14:27:17.456Z,22.43
2022-09-27T14:29:49.725Z,22.31
2022-09-27T14:32:19.713Z,22.18
2022-09-27T14:34:47.755Z,21.91
2022-09-27T14:37:24.426Z,22.04
2022-09-27T14:40:00.467Z,22.08
2022-09-27T14:42:32.471Z,21.90
2022-09-27T14:45:23.732Z,21.70
2022-09-27T14:47:52.733Z,21.42
2022-09-27T14:50:23.838Z,21.27
2022-09-27T14:52:55.533Z,21.23
2022-09-27T14:55:25.114Z,20.99
2022-09-27T14:57:54.811Z,20.95
2022-09-27T15:00:26.831Z,20.95
2022-09-27T15:02:59.030Z,20.91
2022-09-27T15:05:29.316Z,20.61
2022-09-27T15:08:01.405Z,20.75
2022-09-27T15:10:32.363Z,20.34
2022-09-27T15:13:03.477Z,20.25
2022-09-27T15:15:36.034Z,19.88
2022-09-27T15:18:05.335Z,17.84
2022-09-27T15:20:35.676Z,16.18
2022-09-27T15:23:04.820Z,15.26
2022-09-27T15:25:35.912Z,14.93
2022-09-27T15:28:06.870Z,14.55
2022-09-27T15:30:38.434Z,14.42
2022-09-27T15:33:08.730Z,14.46
2022-09-27T15:35:37.808Z,14.36
